sensor_id;sensor_type;location;lat;lon;timestamp;P1;durP1;ratioP1;P2;durP2;ratioP2
3696;SDS011;60662;48.810;8.872;2023-07-22T07:32:38;5.85;;;1.92;;
3696;SDS011;60662;48.810;8.872;2023-07-22T07:34:44;3.50;;;1.65;;
3696;SDS011;60662;48.810;8.872;2023-07-22T07:36:49;4.45;;;1.63;;
3696;SDS011;60662;48.810;8.872;2023-07-22T07:37:50;4.75;;;2.00;;
3696;SDS011;60662;48.810;8.872;2023-07-22T07:38:52;3.70;;;1.60;;
3696;SDS011;60662;48.810;8.872;2023-07-22T07:39:53;7.90;;;1.70;;
3696;SDS011;60662;48.810;8.872;2023-07-22T07:41:01;3.80;;;1.60;;
3696;SDS011;60662;48.810;8.872;2023-07-22T07:42:04;5.90;;;1.80;;
3696;SDS011;60662;48.810;8.872;2023-07-22T07:43:06;7.70;;;1.80;;
3696;SDS011;60662;48.810;8.872;2023-07-22T07:44:07;6.90;;;2.65;;
3696;SDS011;60662;48.810;8.872;2023-07-22T07:45:09;5.78;;;1.67;;
3696;SDS011;60662;48.810;8.872;2023-07-22T07:46:27;21.65;;;4.60;;
3696;SDS011;60662;48.810;8.872;2023-07-22T07:47:30;7.28;;;1.83;;
3696;SDS011;60662;48.810;8.872;2023-07-22T07:49:37;5.70;;;1.77;;
3696;SDS011;60662;48.810;8.872;2023-07-22T07:50:39;4.90;;;1.85;;
3696;SDS011;60662;48.810;8.872;2023-07-22T07:51:40;4.90;;;1.67;;
3696;SDS011;60662;48.810;8.872;2023-07-22T07:52:43;4.57;;;1.33;;
3696;SDS011;60662;48.810;8.872;2023-07-22T07:54:54;6.85;;;2.05;;
3696;SDS011;60662;48.810;8.872;2023-07-22T07:57:16;6.70;;;1.67;;
3696;SDS011;60662;48.810;8.872;2023-07-22T07:59:27;200.57;;;82.25;;
3696;SDS011;60662;48.810;8.872;2023-07-22T08:01:56;24.85;;;22.20;;
3696;SDS011;60662;48.810;8.872;2023-07-22T08:02:58;55.45;;;49.38;;
3696;SDS011;60662;48.810;8.872;2023-07-22T08:04:00;24.48;;;17.70;;
3696;SDS011;60662;48.810;8.872;2023-07-22T08:06:16;155.25;;;93.43;;
3696;SDS011;60662;48.810;8.872;2023-07-22T08:07:20;72.93;;;65.22;;
3696;SDS011;60662;48.810;8.872;2023-07-22T08:08:27;158.57;;;144.35;;
3696;SDS011;60662;48.810;8.872;2023-07-22T08:09:29;34.85;;;26.30;;
3696;SDS011;60662;48.810;8.872;2023-07-22T08:10:30;34.08;;;22.52;;
3696;SDS011;60662;48.810;8.872;2023-07-22T08:11:32;42.00;;;35.47;;
3696;SDS011;60662;48.810;8.872;2023-07-22T08:12:33;65.90;;;56.25;;
3696;SDS011;60662;48.810;8.872;2023-07-22T08:13:35;59.58;;;54.00;;
3696;SDS011;60662;48.810;8.872;2023-07-22T08:14:37;77.70;;;70.55;;
3696;SDS011;60662;48.810;8.872;2023-07-22T08:15:39;103.47;;;93.90;;
3696;SDS011;60662;48.810;8.872;2023-07-22T08:16:40;240.00;;;222.18;;
3696;SDS011;60662;48.810;8.872;2023-07-22T08:17:41;322.10;;;296.75;;
3696;SDS011;60662;48.810;8.872;2023-07-22T08:19:54;536.63;;;496.75;;
3696;SDS011;60662;48.810;8.872;2023-07-22T08:22:06;573.40;;;526.20;;
3696;SDS011;60662;48.810;8.872;2023-07-22T08:23:07;496.63;;;459.52;;
3696;SDS011;60662;48.810;8.872;2023-07-22T08:24:09;324.17;;;300.50;;
3696;SDS011;60662;48.810;8.872;2023-07-22T08:25:10;98.95;;;90.68;;
3696;SDS011;60662;48.810;8.872;2023-07-22T08:26:12;120.88;;;111.00;;
3696;SDS011;60662;48.810;8.872;2023-07-22T08:27:13;100.68;;;92.20;;
3696;SDS011;60662;48.810;8.872;2023-07-22T08:28:15;48.63;;;42.95;;
3696;SDS011;60662;48.810;8.872;2023-07-22T08:29:17;38.58;;;30.05;;
3696;SDS011;60662;48.810;8.872;2023-07-22T08:30:19;49.17;;;44.25;;
3696;SDS011;60662;48.810;8.872;2023-07-22T08:31:20;24.90;;;15.32;;
3696;SDS011;60662;48.810;8.872;2023-07-22T08:32:22;27.50;;;18.30;;
3696;SDS011;60662;48.810;8.872;2023-07-22T08:33:23;38.65;;;33.78;;
3696;SDS011;60662;48.810;8.872;2023-07-22T08:34:40;156.02;;;144.35;;
3696;SDS011;60662;48.810;8.872;2023-07-22T08:35:42;594.80;;;549.47;;
3696;SDS011;60662;48.810;8.872;2023-07-22T08:36:44;503.40;;;467.17;;
3696;SDS011;60662;48.810;8.872;2023-07-22T08:37:45;370.83;;;343.63;;
3696;SDS011;60662;48.810;8.872;2023-07-22T08:38:48;508.08;;;470.65;;
3696;SDS011;60662;48.810;8.872;2023-07-22T08:39:49;230.50;;;213.60;;
3696;SDS011;60662;48.810;8.872;2023-07-22T08:40:51;462.05;;;428.85;;
3696;SDS011;60662;48.810;8.872;2023-07-22T08:41:52;917.83;;;841.03;;
3696;SDS011;60662;48.810;8.872;2023-07-22T08:42:56;955.58;;;875.17;;
3696;SDS011;60662;48.810;8.872;2023-07-22T08:43:58;740.90;;;683.45;;
3696;SDS011;60662;48.810;8.872;2023-07-22T08:45:01;918.42;;;841.05;;
3696;SDS011;60662;48.810;8.872;2023-07-22T08:46:05;1110.07;;;994.78;;
3696;SDS011;60662;48.810;8.872;2023-07-22T08:47:08;1516.80;;;999.90;;
3696;SDS011;60662;48.810;8.872;2023-07-22T08:48:16;1294.43;;;999.90;;
3696;SDS011;60662;48.810;8.872;2023-07-22T08:49:19;1468.65;;;999.90;;
3696;SDS011;60662;48.810;8.872;2023-07-22T08:50:21;1147.07;;;999.90;;
3696;SDS011;60662;48.810;8.872;2023-07-22T08:51:24;712.67;;;655.40;;
3696;SDS011;60662;48.810;8.872;2023-07-22T08:52:29;977.90;;;891.55;;
3696;SDS011;60662;48.810;8.872;2023-07-22T08:53:31;736.90;;;679.75;;
3696;SDS011;60662;48.810;8.872;2023-07-22T08:54:34;672.60;;;618.55;;
3696;SDS011;60662;48.810;8.872;2023-07-22T08:55:38;643.85;;;595.10;;
3696;SDS011;60662;48.810;8.872;2023-07-22T08:56:41;1097.68;;;991.50;;
3696;SDS011;60662;48.810;8.872;2023-07-22T08:57:43;980.03;;;896.17;;
3696;SDS011;60662;48.810;8.872;2023-07-22T08:58:46;940.45;;;862.88;;
3696;SDS011;60662;48.810;8.872;2023-07-22T08:59:50;1187.93;;;999.90;;
3696;SDS011;60662;48.810;8.872;2023-07-22T09:00:53;997.85;;;911.42;;
3696;SDS011;60662;48.810;8.872;2023-07-22T09:01:55;1280.47;;;999.90;;
3696;SDS011;60662;48.810;8.872;2023-07-22T09:02:57;1184.05;;;999.90;;
3696;SDS011;60662;48.810;8.872;2023-07-22T09:04:00;1037.57;;;943.78;;
3696;SDS011;60662;48.810;8.872;2023-07-22T09:05:02;766.53;;;706.92;;
3696;SDS011;60662;48.810;8.872;2023-07-22T09:06:04;1027.88;;;938.00;;
3696;SDS011;60662;48.810;8.872;2023-07-22T09:07:06;1096.32;;;991.08;;
3696;SDS011;60662;48.810;8.872;2023-07-22T09:08:09;999.92;;;907.28;;
3696;SDS011;60662;48.810;8.872;2023-07-22T09:09:10;949.15;;;869.83;;
3696;SDS011;60662;48.810;8.872;2023-07-22T09:11:21;377.83;;;349.17;;
3696;SDS011;60662;48.810;8.872;2023-07-22T09:13:28;707.28;;;653.63;;
3696;SDS011;60662;48.810;8.872;2023-07-22T09:14:30;865.80;;;791.90;;
3696;SDS011;60662;48.810;8.872;2023-07-22T09:15:37;697.78;;;642.65;;
3696;SDS011;60662;48.810;8.872;2023-07-22T09:16:39;865.65;;;793.90;;
3696;SDS011;60662;48.810;8.872;2023-07-22T09:17:40;993.65;;;907.95;;
3696;SDS011;60662;48.810;8.872;2023-07-22T09:18:42;1151.50;;;999.90;;
3696;SDS011;60662;48.810;8.872;2023-07-22T09:19:44;1048.65;;;953.85;;
3696;SDS011;60662;48.810;8.872;2023-07-22T09:20:45;1058.18;;;955.67;;
3696;SDS011;60662;48.810;8.872;2023-07-22T09:21:46;914.35;;;836.80;;
3696;SDS011;60662;48.810;8.872;2023-07-22T09:22:49;1115.05;;;999.03;;
3696;SDS011;60662;48.810;8.872;2023-07-22T09:24:22;1239.07;;;999.90;;
3696;SDS011;60662;48.810;8.872;2023-07-22T09:25:25;1256.50;;;999.90;;
3696;SDS011;60662;48.810;8.872;2023-07-22T09:26:28;1261.75;;;999.90;;
3696;SDS011;60662;48.810;8.872;2023-07-22T09:27:33;1275.82;;;999.90;;
3696;SDS011;60662;48.810;8.872;2023-07-22T09:29:59;1196.72;;;999.90;;
3696;SDS011;60662;48.810;8.872;2023-07-22T09:31:01;1232.07;;;999.90;;
3696;SDS011;60662;48.810;8.872;2023-07-22T09:32:04;1232.05;;;999.90;;
3696;SDS011;60662;48.810;8.872;2023-07-22T09:33:21;1266.47;;;999.90;;
3696;SDS011;60662;48.810;8.872;2023-07-22T09:34:23;1233.25;;;999.90;;
3696;SDS011;60662;48.810;8.872;2023-07-22T09:35:27;1241.47;;;999.90;;
3696;SDS011;60662;48.810;8.872;2023-07-22T09:36:32;1240.35;;;999.90;;
3696;SDS011;60662;48.810;8.872;2023-07-22T09:37:46;1236.20;;;999.90;;
3696;SDS011;60662;48.810;8.872;2023-07-22T09:39:00;1212.82;;;999.90;;
3696;SDS011;60662;48.810;8.872;2023-07-22T09:41:27;963.83;;;883.22;;
3696;SDS011;60662;48.810;8.872;2023-07-22T09:42:30;1084.60;;;991.08;;
3696;SDS011;60662;48.810;8.872;2023-07-22T09:43:35;1003.15;;;916.17;;
3696;SDS011;60662;48.810;8.872;2023-07-22T09:44:38;949.70;;;869.47;;
3696;SDS011;60662;48.810;8.872;2023-07-22T09:45:46;1024.90;;;931.28;;
3696;SDS011;60662;48.810;8.872;2023-07-22T09:46:49;1041.50;;;949.58;;
3696;SDS011;60662;48.810;8.872;2023-07-22T09:47:53;987.58;;;903.28;;
3696;SDS011;60662;48.810;8.872;2023-07-22T09:48:56;809.40;;;739.38;;
3696;SDS011;60662;48.810;8.872;2023-07-22T09:49:57;780.90;;;705.25;;
3696;SDS011;60662;48.810;8.872;2023-07-22T09:50:59;848.60;;;777.35;;
3696;SDS011;60662;48.810;8.872;2023-07-22T09:52:00;780.50;;;713.72;;
3696;SDS011;60662;48.810;8.872;2023-07-22T09:53:16;722.42;;;661.15;;
3696;SDS011;60662;48.810;8.872;2023-07-22T09:54:18;597.38;;;542.17;;
3696;SDS011;60662;48.810;8.872;2023-07-22T09:55:21;741.30;;;676.20;;
3696;SDS011;60662;48.810;8.872;2023-07-22T09:56:24;675.92;;;613.75;;
3696;SDS011;60662;48.810;8.872;2023-07-22T09:57:26;901.90;;;823.33;;
3696;SDS011;60662;48.810;8.872;2023-07-22T09:58:28;737.35;;;673.38;;
3696;SDS011;60662;48.810;8.872;2023-07-22T09:59:32;736.10;;;671.70;;
3696;SDS011;60662;48.810;8.872;2023-07-22T10:00:34;766.85;;;687.90;;
3696;SDS011;60662;48.810;8.872;2023-07-22T10:01:40;742.78;;;675.45;;
3696;SDS011;60662;48.810;8.872;2023-07-22T10:02:42;681.90;;;617.05;;
3696;SDS011;60662;48.810;8.872;2023-07-22T10:03:45;664.15;;;596.58;;
3696;SDS011;60662;48.810;8.872;2023-07-22T10:04:47;648.60;;;588.60;;
3696;SDS011;60662;48.810;8.872;2023-07-22T10:05:51;707.55;;;638.88;;
3696;SDS011;60662;48.810;8.872;2023-07-22T10:06:52;981.38;;;880.08;;
3696;SDS011;60662;48.810;8.872;2023-07-22T10:07:55;874.47;;;787.85;;
3696;SDS011;60662;48.810;8.872;2023-07-22T10:09:05;793.20;;;719.20;;
3696;SDS011;60662;48.810;8.872;2023-07-22T10:10:10;665.53;;;600.47;;
3696;SDS011;60662;48.810;8.872;2023-07-22T10:11:17;705.88;;;635.58;;
3696;SDS011;60662;48.810;8.872;2023-07-22T10:12:19;1150.72;;;984.40;;
3696;SDS011;60662;48.810;8.872;2023-07-22T10:13:21;1216.72;;;999.90;;
3696;SDS011;60662;48.810;8.872;2023-07-22T10:14:23;907.45;;;822.38;;
3696;SDS011;60662;48.810;8.872;2023-07-22T10:15:28;485.83;;;431.52;;
3696;SDS011;60662;48.810;8.872;2023-07-22T10:16:31;588.05;;;529.03;;
3696;SDS011;60662;48.810;8.872;2023-07-22T10:17:33;655.38;;;588.30;;
3696;SDS011;60662;48.810;8.872;2023-07-22T10:18:36;852.30;;;768.17;;
3696;SDS011;60662;48.810;8.872;2023-07-22T10:19:38;838.90;;;758.78;;
3696;SDS011;60662;48.810;8.872;2023-07-22T10:20:39;1018.95;;;915.17;;
3696;SDS011;60662;48.810;8.872;2023-07-22T10:21:42;772.97;;;700.42;;
3696;SDS011;60662;48.810;8.872;2023-07-22T10:22:44;978.72;;;881.47;;
3696;SDS011;60662;48.810;8.872;2023-07-22T10:23:47;958.35;;;865.42;;
3696;SDS011;60662;48.810;8.872;2023-07-22T10:24:49;938.97;;;843.95;;
3696;SDS011;60662;48.810;8.872;2023-07-22T10:25:52;924.70;;;839.55;;
3696;SDS011;60662;48.810;8.872;2023-07-22T10:26:54;808.65;;;715.40;;
3696;SDS011;60662;48.810;8.872;2023-07-22T10:27:56;626.60;;;563.00;;
3696;SDS011;60662;48.810;8.872;2023-07-22T10:28:58;706.13;;;643.83;;
3696;SDS011;60662;48.810;8.872;2023-07-22T10:30:00;493.08;;;443.63;;
3696;SDS011;60662;48.810;8.872;2023-07-22T10:31:02;572.88;;;517.83;;
3696;SDS011;60662;48.810;8.872;2023-07-22T10:32:04;495.70;;;447.80;;
3696;SDS011;60662;48.810;8.872;2023-07-22T10:33:06;742.83;;;662.33;;
3696;SDS011;60662;48.810;8.872;2023-07-22T10:34:07;458.35;;;402.42;;
3696;SDS011;60662;48.810;8.872;2023-07-22T10:35:10;335.95;;;272.95;;
3696;SDS011;60662;48.810;8.872;2023-07-22T10:36:16;438.25;;;380.13;;
3696;SDS011;60662;48.810;8.872;2023-07-22T10:37:18;461.52;;;415.02;;
3696;SDS011;60662;48.810;8.872;2023-07-22T10:38:24;378.92;;;330.95;;
3696;SDS011;60662;48.810;8.872;2023-07-22T10:39:27;543.05;;;481.85;;
3696;SDS011;60662;48.810;8.872;2023-07-22T10:40:29;366.77;;;321.52;;
3696;SDS011;60662;48.810;8.872;2023-07-22T10:41:32;355.85;;;317.38;;
3696;SDS011;60662;48.810;8.872;2023-07-22T10:42:34;389.13;;;348.40;;
3696;SDS011;60662;48.810;8.872;2023-07-22T10:43:35;471.00;;;425.40;;
3696;SDS011;60662;48.810;8.872;2023-07-22T10:44:37;975.47;;;890.00;;
3696;SDS011;60662;48.810;8.872;2023-07-22T10:45:41;1066.32;;;965.47;;
3696;SDS011;60662;48.810;8.872;2023-07-22T10:46:44;1061.13;;;965.83;;
3696;SDS011;60662;48.810;8.872;2023-07-22T10:48:08;900.78;;;825.88;;
3696;SDS011;60662;48.810;8.872;2023-07-22T10:50:18;1300.93;;;999.90;;
3696;SDS011;60662;48.810;8.872;2023-07-22T10:51:20;1208.55;;;999.90;;
3696;SDS011;60662;48.810;8.872;2023-07-22T10:52:38;905.17;;;826.90;;
3696;SDS011;60662;48.810;8.872;2023-07-22T10:53:44;944.17;;;863.13;;
3696;SDS011;60662;48.810;8.872;2023-07-22T10:54:48;625.70;;;566.58;;
3696;SDS011;60662;48.810;8.872;2023-07-22T10:56:02;362.90;;;307.35;;
3696;SDS011;60662;48.810;8.872;2023-07-22T10:58:17;285.48;;;193.00;;
3696;SDS011;60662;48.810;8.872;2023-07-22T10:59:25;280.08;;;186.40;;
3696;SDS011;60662;48.810;8.872;2023-07-22T11:00:29;456.38;;;411.95;;
3696;SDS011;60662;48.810;8.872;2023-07-22T11:01:31;417.38;;;375.17;;
3696;SDS011;60662;48.810;8.872;2023-07-22T11:02:35;302.15;;;224.65;;
3696;SDS011;60662;48.810;8.872;2023-07-22T11:03:58;405.70;;;360.17;;
3696;SDS011;60662;48.810;8.872;2023-07-22T11:05:11;935.40;;;854.17;;
3696;SDS011;60662;48.810;8.872;2023-07-22T11:06:13;567.72;;;514.78;;
3696;SDS011;60662;48.810;8.872;2023-07-22T11:07:16;629.13;;;571.88;;
3696;SDS011;60662;48.810;8.872;2023-07-22T11:08:35;800.55;;;728.08;;
3696;SDS011;60662;48.810;8.872;2023-07-22T11:09:38;708.70;;;642.72;;
3696;SDS011;60662;48.810;8.872;2023-07-22T11:10:54;489.33;;;433.40;;
3696;SDS011;60662;48.810;8.872;2023-07-22T11:11:58;621.75;;;559.35;;
3696;SDS011;60662;48.810;8.872;2023-07-22T11:13:16;981.22;;;895.10;;
3696;SDS011;60662;48.810;8.872;2023-07-22T11:14:20;1064.55;;;973.88;;
3696;SDS011;60662;48.810;8.872;2023-07-22T11:15:22;1092.65;;;997.80;;
3696;SDS011;60662;48.810;8.872;2023-07-22T11:16:24;1154.50;;;999.90;;
3696;SDS011;60662;48.810;8.872;2023-07-22T11:17:31;1064.55;;;973.35;;
3696;SDS011;60662;48.810;8.872;2023-07-22T11:18:37;1132.07;;;999.90;;
3696;SDS011;60662;48.810;8.872;2023-07-22T11:19:42;1123.32;;;999.90;;
3696;SDS011;60662;48.810;8.872;2023-07-22T11:20:43;1157.35;;;999.90;;
3696;SDS011;60662;48.810;8.872;2023-07-22T11:21:45;1163.60;;;999.90;;
3696;SDS011;60662;48.810;8.872;2023-07-22T11:22:49;1173.78;;;999.90;;
3696;SDS011;60662;48.810;8.872;2023-07-22T11:23:51;1071.80;;;979.08;;
3696;SDS011;60662;48.810;8.872;2023-07-22T11:24:53;1136.88;;;999.90;;
3696;SDS011;60662;48.810;8.872;2023-07-22T11:25:54;1294.32;;;999.90;;
3696;SDS011;60662;48.810;8.872;2023-07-22T11:26:56;1896.35;;;999.90;;
3696;SDS011;60662;48.810;8.872;2023-07-22T11:27:57;1252.95;;;999.90;;
3696;SDS011;60662;48.810;8.872;2023-07-22T11:28:59;1104.93;;;999.90;;
3696;SDS011;60662;48.810;8.872;2023-07-22T11:30:02;1128.30;;;999.90;;
3696;SDS011;60662;48.810;8.872;2023-07-22T11:31:05;1111.15;;;999.90;;
3696;SDS011;60662;48.810;8.872;2023-07-22T11:32:06;1142.90;;;999.90;;
3696;SDS011;60662;48.810;8.872;2023-07-22T11:33:19;1160.90;;;999.90;;
3696;SDS011;60662;48.810;8.872;2023-07-22T11:34:22;1044.05;;;955.17;;
3696;SDS011;60662;48.810;8.872;2023-07-22T11:35:27;967.95;;;887.22;;
3696;SDS011;60662;48.810;8.872;2023-07-22T11:36:29;1043.78;;;956.53;;
3696;SDS011;60662;48.810;8.872;2023-07-22T11:37:30;1090.70;;;996.83;;
3696;SDS011;60662;48.810;8.872;2023-07-22T11:38:34;1152.47;;;999.90;;
3696;SDS011;60662;48.810;8.872;2023-07-22T11:39:36;1186.55;;;999.90;;
3696;SDS011;60662;48.810;8.872;2023-07-22T11:40:38;1038.78;;;946.10;;
3696;SDS011;60662;48.810;8.872;2023-07-22T11:41:40;1000.70;;;908.35;;
3696;SDS011;60662;48.810;8.872;2023-07-22T11:42:43;912.75;;;829.88;;
3696;SDS011;60662;48.810;8.872;2023-07-22T11:43:46;1095.05;;;974.20;;
3696;SDS011;60662;48.810;8.872;2023-07-22T11:44:49;1678.63;;;999.90;;
3696;SDS011;60662;48.810;8.872;2023-07-22T11:45:51;850.42;;;778.83;;
3696;SDS011;60662;48.810;8.872;2023-07-22T11:47:58;975.90;;;891.22;;
3696;SDS011;60662;48.810;8.872;2023-07-22T11:48:59;907.38;;;833.53;;
3696;SDS011;60662;48.810;8.872;2023-07-22T11:50:04;1171.07;;;999.90;;
3696;SDS011;60662;48.810;8.872;2023-07-22T11:51:07;963.03;;;883.92;;
3696;SDS011;60662;48.810;8.872;2023-07-22T11:52:09;1318.55;;;999.90;;
3696;SDS011;60662;48.810;8.872;2023-07-22T11:53:12;1250.07;;;999.90;;
3696;SDS011;60662;48.810;8.872;2023-07-22T11:54:14;1397.38;;;999.90;;
3696;SDS011;60662;48.810;8.872;2023-07-22T11:55:22;1319.53;;;999.90;;
3696;SDS011;60662;48.810;8.872;2023-07-22T11:56:36;1088.00;;;974.90;;
3696;SDS011;60662;48.810;8.872;2023-07-22T11:57:40;686.42;;;618.95;;
3696;SDS011;60662;48.810;8.872;2023-07-22T11:58:43;546.60;;;491.40;;
3696;SDS011;60662;48.810;8.872;2023-07-22T11:59:46;1092.50;;;977.55;;
3696;SDS011;60662;48.810;8.872;2023-07-22T12:01:01;637.70;;;578.17;;
3696;SDS011;60662;48.810;8.872;2023-07-22T12:02:06;536.47;;;484.23;;
3696;SDS011;60662;48.810;8.872;2023-07-22T12:03:08;560.92;;;507.55;;
3696;SDS011;60662;48.810;8.872;2023-07-22T12:04:10;1084.32;;;980.63;;
3696;SDS011;60662;48.810;8.872;2023-07-22T12:05:20;1189.47;;;999.90;;
3696;SDS011;60662;48.810;8.872;2023-07-22T12:06:24;1199.22;;;999.90;;
3696;SDS011;60662;48.810;8.872;2023-07-22T12:07:30;1259.93;;;999.90;;
3696;SDS011;60662;48.810;8.872;2023-07-22T12:08:36;1266.40;;;999.90;;
3696;SDS011;60662;48.810;8.872;2023-07-22T12:09:47;1239.18;;;999.90;;
3696;SDS011;60662;48.810;8.872;2023-07-22T12:10:57;1229.20;;;999.90;;
3696;SDS011;60662;48.810;8.872;2023-07-22T12:11:59;702.28;;;635.45;;
3696;SDS011;60662;48.810;8.872;2023-07-22T12:13:01;695.08;;;632.00;;
3696;SDS011;60662;48.810;8.872;2023-07-22T12:14:10;668.30;;;607.45;;
3696;SDS011;60662;48.810;8.872;2023-07-22T12:15:16;712.35;;;650.08;;
3696;SDS011;60662;48.810;8.872;2023-07-22T12:16:21;695.17;;;633.90;;
3696;SDS011;60662;48.810;8.872;2023-07-22T12:17:27;694.80;;;633.10;;
3696;SDS011;60662;48.810;8.872;2023-07-22T12:18:40;715.17;;;652.45;;
3696;SDS011;60662;48.810;8.872;2023-07-22T12:19:52;1100.18;;;948.60;;
3696;SDS011;60662;48.810;8.872;2023-07-22T12:20:56;1190.45;;;999.90;;
3696;SDS011;60662;48.810;8.872;2023-07-22T12:21:58;1193.95;;;999.90;;
3696;SDS011;60662;48.810;8.872;2023-07-22T12:23:00;1400.05;;;999.90;;
3696;SDS011;60662;48.810;8.872;2023-07-22T12:24:01;1136.90;;;999.90;;
3696;SDS011;60662;48.810;8.872;2023-07-22T12:25:05;1033.65;;;940.42;;
3696;SDS011;60662;48.810;8.872;2023-07-22T12:26:07;1118.60;;;996.45;;
3696;SDS011;60662;48.810;8.872;2023-07-22T12:27:09;1036.22;;;945.20;;
3696;SDS011;60662;48.810;8.872;2023-07-22T12:28:10;1063.75;;;971.53;;
3696;SDS011;60662;48.810;8.872;2023-07-22T12:29:12;1210.68;;;999.90;;
3696;SDS011;60662;48.810;8.872;2023-07-22T12:30:14;1145.75;;;999.90;;
3696;SDS011;60662;48.810;8.872;2023-07-22T12:31:20;1184.88;;;999.90;;
3696;SDS011;60662;48.810;8.872;2023-07-22T12:32:22;857.58;;;770.13;;
3696;SDS011;60662;48.810;8.872;2023-07-22T12:33:23;699.90;;;635.53;;
3696;SDS011;60662;48.810;8.872;2023-07-22T12:34:25;678.90;;;612.72;;
3696;SDS011;60662;48.810;8.872;2023-07-22T12:35:27;605.80;;;549.05;;
3696;SDS011;60662;48.810;8.872;2023-07-22T12:36:29;822.90;;;742.80;;
3696;SDS011;60662;48.810;8.872;2023-07-22T12:37:30;796.83;;;721.90;;
3696;SDS011;60662;48.810;8.872;2023-07-22T12:38:32;665.85;;;599.33;;
3696;SDS011;60662;48.810;8.872;2023-07-22T12:39:34;1456.15;;;795.17;;
3696;SDS011;60662;48.810;8.872;2023-07-22T12:40:36;569.45;;;510.15;;
3696;SDS011;60662;48.810;8.872;2023-07-22T12:41:37;655.28;;;591.47;;
3696;SDS011;60662;48.810;8.872;2023-07-22T12:42:39;811.03;;;731.63;;
3696;SDS011;60662;48.810;8.872;2023-07-22T12:43:42;1132.57;;;999.90;;
3696;SDS011;60662;48.810;8.872;2023-07-22T12:44:43;1083.75;;;976.92;;
3696;SDS011;60662;48.810;8.872;2023-07-22T12:45:45;1145.07;;;999.90;;
3696;SDS011;60662;48.810;8.872;2023-07-22T12:46:46;1152.93;;;999.90;;
3696;SDS011;60662;48.810;8.872;2023-07-22T12:47:48;1105.18;;;994.35;;
3696;SDS011;60662;48.810;8.872;2023-07-22T12:48:50;1086.22;;;986.40;;
3696;SDS011;60662;48.810;8.872;2023-07-22T12:49:51;995.60;;;912.78;;
3696;SDS011;60662;48.810;8.872;2023-07-22T12:50:52;1029.75;;;943.83;;
3696;SDS011;60662;48.810;8.872;2023-07-22T12:51:54;1060.25;;;970.80;;
3696;SDS011;60662;48.810;8.872;2023-07-22T12:52:56;1015.65;;;931.35;;
3696;SDS011;60662;48.810;8.872;2023-07-22T12:53:57;1014.20;;;927.97;;
3696;SDS011;60662;48.810;8.872;2023-07-22T12:54:59;1058.90;;;968.33;;
3696;SDS011;60662;48.810;8.872;2023-07-22T12:56:01;933.53;;;854.13;;
3696;SDS011;60662;48.810;8.872;2023-07-22T12:57:04;842.92;;;770.17;;
3696;SDS011;60662;48.810;8.872;2023-07-22T12:58:06;1003.33;;;913.45;;
3696;SDS011;60662;48.810;8.872;2023-07-22T12:59:08;1009.88;;;924.92;;
3696;SDS011;60662;48.810;8.872;2023-07-22T13:00:09;1141.53;;;999.90;;
3696;SDS011;60662;48.810;8.872;2023-07-22T13:01:12;1120.57;;;999.90;;
3696;SDS011;60662;48.810;8.872;2023-07-22T13:02:15;1132.03;;;999.90;;
3696;SDS011;60662;48.810;8.872;2023-07-22T13:03:17;994.97;;;908.30;;
3696;SDS011;60662;48.810;8.872;2023-07-22T13:04:19;1170.50;;;999.90;;
3696;SDS011;60662;48.810;8.872;2023-07-22T13:05:21;1136.72;;;999.90;;
3696;SDS011;60662;48.810;8.872;2023-07-22T13:06:23;1152.50;;;999.90;;
3696;SDS011;60662;48.810;8.872;2023-07-22T13:07:24;1216.18;;;999.90;;
3696;SDS011;60662;48.810;8.872;2023-07-22T13:08:26;825.45;;;747.58;;
3696;SDS011;60662;48.810;8.872;2023-07-22T13:09:27;1183.90;;;999.90;;
3696;SDS011;60662;48.810;8.872;2023-07-22T13:10:29;1215.68;;;999.90;;
3696;SDS011;60662;48.810;8.872;2023-07-22T13:11:31;1150.53;;;999.90;;
3696;SDS011;60662;48.810;8.872;2023-07-22T13:12:33;620.70;;;564.63;;
3696;SDS011;60662;48.810;8.872;2023-07-22T13:13:34;582.95;;;528.25;;
3696;SDS011;60662;48.810;8.872;2023-07-22T13:14:36;565.67;;;513.35;;
3696;SDS011;60662;48.810;8.872;2023-07-22T13:15:40;568.70;;;516.38;;
3696;SDS011;60662;48.810;8.872;2023-07-22T13:16:41;492.58;;;444.48;;
3696;SDS011;60662;48.810;8.872;2023-07-22T13:17:43;747.42;;;675.47;;
3696;SDS011;60662;48.810;8.872;2023-07-22T13:18:44;1162.90;;;982.10;;
3696;SDS011;60662;48.810;8.872;2023-07-22T13:19:46;1213.30;;;999.90;;
3696;SDS011;60662;48.810;8.872;2023-07-22T13:20:47;1230.63;;;999.90;;
3696;SDS011;60662;48.810;8.872;2023-07-22T13:21:49;1299.53;;;999.90;;
3696;SDS011;60662;48.810;8.872;2023-07-22T13:22:50;910.58;;;816.22;;
3696;SDS011;60662;48.810;8.872;2023-07-22T13:23:52;1258.72;;;999.90;;
3696;SDS011;60662;48.810;8.872;2023-07-22T13:24:53;1224.97;;;999.90;;
3696;SDS011;60662;48.810;8.872;2023-07-22T13:25:55;1127.45;;;999.90;;
3696;SDS011;60662;48.810;8.872;2023-07-22T13:26:57;1151.25;;;999.90;;
3696;SDS011;60662;48.810;8.872;2023-07-22T13:27:59;990.92;;;885.47;;
3696;SDS011;60662;48.810;8.872;2023-07-22T13:29:00;1096.07;;;988.15;;
3696;SDS011;60662;48.810;8.872;2023-07-22T13:30:02;1226.72;;;999.90;;
3696;SDS011;60662;48.810;8.872;2023-07-22T13:31:03;714.88;;;649.25;;
3696;SDS011;60662;48.810;8.872;2023-07-22T13:32:05;796.70;;;720.17;;
3696;SDS011;60662;48.810;8.872;2023-07-22T13:33:07;487.80;;;438.38;;
3696;SDS011;60662;48.810;8.872;2023-07-22T13:34:09;558.35;;;505.05;;
3696;SDS011;60662;48.810;8.872;2023-07-22T13:35:11;653.63;;;590.80;;
3696;SDS011;60662;48.810;8.872;2023-07-22T13:36:12;538.08;;;480.65;;
3696;SDS011;60662;48.810;8.872;2023-07-22T13:37:14;610.05;;;553.88;;
3696;SDS011;60662;48.810;8.872;2023-07-22T13:38:15;1067.32;;;721.55;;
3696;SDS011;60662;48.810;8.872;2023-07-22T13:39:17;571.83;;;514.55;;
3696;SDS011;60662;48.810;8.872;2023-07-22T13:40:18;580.00;;;509.73;;
3696;SDS011;60662;48.810;8.872;2023-07-22T13:41:20;2250.00;;;999.90;;
3696;SDS011;60662;48.810;8.872;2023-07-22T13:42:21;2250.00;;;999.90;;
3696;SDS011;60662;48.810;8.872;2023-07-22T13:43:23;586.78;;;529.78;;
3696;SDS011;60662;48.810;8.872;2023-07-22T13:44:24;1377.18;;;748.60;;
3696;SDS011;60662;48.810;8.872;2023-07-22T13:45:26;2250.00;;;999.90;;
3696;SDS011;60662;48.810;8.872;2023-07-22T13:46:28;452.83;;;402.77;;
3696;SDS011;60662;48.810;8.872;2023-07-22T13:47:29;1368.10;;;740.53;;
3696;SDS011;60662;48.810;8.872;2023-07-22T13:48:31;2250.00;;;999.90;;
3696;SDS011;60662;48.810;8.872;2023-07-22T13:49:32;2250.00;;;999.90;;
3696;SDS011;60662;48.810;8.872;2023-07-22T13:50:34;2250.00;;;999.90;;
3696;SDS011;60662;48.810;8.872;2023-07-22T13:51:37;2250.00;;;999.90;;
3696;SDS011;60662;48.810;8.872;2023-07-22T13:52:39;1335.13;;;696.22;;
3696;SDS011;60662;48.810;8.872;2023-07-22T13:53:42;1126.47;;;994.75;;
3696;SDS011;60662;48.810;8.872;2023-07-22T13:54:44;1116.88;;;998.10;;
3696;SDS011;60662;48.810;8.872;2023-07-22T13:55:46;1038.57;;;942.08;;
3696;SDS011;60662;48.810;8.872;2023-07-22T13:56:53;1102.05;;;996.20;;
3696;SDS011;60662;48.810;8.872;2023-07-22T13:57:54;1121.28;;;999.90;;